sensor_id;sensor_type;location;lat;lon;timestamp;pressure;altitude;pressure_sealevel;temperature;humidity
74346;BME280;62776;50.518;6.732;2023-12-20T00:02:04;96523.75;;;6.15;100.00
74346;BME280;62776;50.518;6.732;2023-12-20T00:05:01;96515.13;;;6.16;100.00
74346;BME280;62776;50.518;6.732;2023-12-20T00:07:47;96514.28;;;6.17;100.00
74346;BME280;62776;50.518;6.732;2023-12-20T00:10:37;96509.09;;;6.14;100.00
74346;BME280;62776;50.518;6.732;2023-12-20T00:17:02;96506.44;;;6.02;100.00
74346;BME280;62776;50.518;6.732;2023-12-20T00:19:48;96507.34;;;6.10;100.00
74346;BME280;62776;50.518;6.732;2023-12-20T00:22:38;96522.00;;;6.14;100.00
74346;BME280;62776;50.518;6.732;2023-12-20T00:25:27;96511.72;;;6.17;100.00
74346;BME280;62776;50.518;6.732;2023-12-20T00:28:13;96498.81;;;6.19;100.00
74346;BME280;62776;50.518;6.732;2023-12-20T00:30:59;96502.22;;;6.16;100.00
74346;BME280;62776;50.518;6.732;2023-12-20T00:33:48;96514.28;;;6.17;100.00
74346;BME280;62776;50.518;6.732;2023-12-20T00:36:34;96513.41;;;6.14;100.00
74346;BME280;62776;50.518;6.732;2023-12-20T00:39:28;96507.38;;;6.12;100.00
74346;BME280;62776;50.518;6.732;2023-12-20T00:42:17;96490.19;;;6.14;100.00
74346;BME280;62776;50.518;6.732;2023-12-20T00:45:10;96510.81;;;6.12;100.00
74346;BME280;62776;50.518;6.732;2023-12-20T00:47:56;96504.84;;;6.18;100.00
74346;BME280;62776;50.518;6.732;2023-12-20T00:50:43;96508.28;;;6.21;100.00
74346;BME280;62776;50.518;6.732;2023-12-20T00:53:29;96509.16;;;6.26;100.00
74346;BME280;62776;50.518;6.732;2023-12-20T00:56:18;96498.00;;;6.27;100.00
74346;BME280;62776;50.518;6.732;2023-12-20T00:59:04;96497.16;;;6.28;100.00
74346;BME280;62776;50.518;6.732;2023-12-20T01:02:03;96494.50;;;6.16;100.00
74346;BME280;62776;50.518;6.732;2023-12-20T01:04:52;96509.16;;;6.25;100.00
74346;BME280;62776;50.518;6.732;2023-12-20T01:07:41;96505.72;;;6.24;100.00
74346;BME280;62776;50.518;6.732;2023-12-20T01:11:22;96518.53;;;6.06;100.00
74346;BME280;62776;50.518;6.732;2023-12-20T01:14:44;96511.72;;;6.19;100.00
74346;BME280;62776;50.518;6.732;2023-12-20T01:17:30;96522.03;;;6.17;100.00
74346;BME280;62776;50.518;6.732;2023-12-20T01:20:20;96520.31;;;6.19;100.00
74346;BME280;62776;50.518;6.732;2023-12-20T01:23:07;96521.16;;;6.18;100.00
74346;BME280;62776;50.518;6.732;2023-12-20T01:26:05;96516.84;;;6.16;100.00
74346;BME280;62776;50.518;6.732;2023-12-20T01:28:59;96516.03;;;6.20;100.00
74346;BME280;62776;50.518;6.732;2023-12-20T01:31:53;96532.38;;;6.20;100.00
74346;BME280;62776;50.518;6.732;2023-12-20T01:34:42;96521.19;;;6.21;100.00
74346;BME280;62776;50.518;6.732;2023-12-20T01:37:29;96519.47;;;6.17;100.00
74346;BME280;62776;50.518;6.732;2023-12-20T01:40:15;96532.38;;;6.20;100.00
74346;BME280;62776;50.518;6.732;2023-12-20T01:43:09;96532.31;;;6.11;100.00
74346;BME280;62776;50.518;6.732;2023-12-20T01:45:58;96542.69;;;6.17;100.00
74346;BME280;62776;50.518;6.732;2023-12-20T01:48:45;96565.84;;;6.13;100.00
74346;BME280;62776;50.518;6.732;2023-12-20T01:51:36;96558.91;;;6.01;100.00
74346;BME280;62776;50.518;6.732;2023-12-20T01:54:23;96563.13;;;5.90;100.00
74346;BME280;62776;50.518;6.732;2023-12-20T01:57:10;96568.97;;;5.75;100.00
74346;BME280;62776;50.518;6.732;2023-12-20T01:59:57;96571.44;;;5.62;100.00
74346;BME280;62776;50.518;6.732;2023-12-20T02:02:44;96574.72;;;5.46;100.00
74346;BME280;62776;50.518;6.732;2023-12-20T02:05:30;96590.09;;;5.35;100.00
74346;BME280;62776;50.518;6.732;2023-12-20T02:11:16;96594.97;;;5.09;100.00
74346;BME280;62776;50.518;6.732;2023-12-20T02:14:02;96600.75;;;4.92;100.00
74346;BME280;62776;50.518;6.732;2023-12-20T02:16:52;96593.75;;;4.82;100.00
74346;BME280;62776;50.518;6.732;2023-12-20T02:19:38;96589.44;;;4.79;100.00
74346;BME280;62776;50.518;6.732;2023-12-20T02:22:35;96595.28;;;4.67;100.00
74346;BME280;62776;50.518;6.732;2023-12-20T02:25:24;96605.53;;;4.61;100.00
74346;BME280;62776;50.518;6.732;2023-12-20T02:28:11;96597.63;;;4.51;100.00
74346;BME280;62776;50.518;6.732;2023-12-20T02:30:57;96609.69;;;4.52;100.00
74346;BME280;62776;50.518;6.732;2023-12-20T02:33:44;96604.56;;;4.55;100.00
74346;BME280;62776;50.518;6.732;2023-12-20T02:36:30;96606.22;;;4.51;100.00
74346;BME280;62776;50.518;6.732;2023-12-20T02:39:22;96608.81;;;4.51;100.00
74346;BME280;62776;50.518;6.732;2023-12-20T02:42:42;96597.41;;;4.33;100.00
74346;BME280;62776;50.518;6.732;2023-12-20T02:49:11;96603.56;;;4.45;100.00
74346;BME280;62776;50.518;6.732;2023-12-20T02:52:17;96612.09;;;4.41;100.00
74346;BME280;62776;50.518;6.732;2023-12-20T02:55:06;96605.22;;;4.40;100.00
74346;BME280;62776;50.518;6.732;2023-12-20T02:57:52;96606.16;;;4.45;100.00
74346;BME280;62776;50.518;6.732;2023-12-20T03:00:46;96613.03;;;4.45;100.00
74346;BME280;62776;50.518;6.732;2023-12-20T03:03:33;96602.69;;;4.43;100.00
74346;BME280;62776;50.518;6.732;2023-12-20T03:06:26;96608.66;;;4.41;100.00
74346;BME280;62776;50.518;6.732;2023-12-20T03:09:13;96598.41;;;4.44;100.00
74346;BME280;62776;50.518;6.732;2023-12-20T03:11:59;96601.88;;;4.44;100.00
74346;BME280;62776;50.518;6.732;2023-12-20T03:14:48;96612.16;;;4.46;100.00
74346;BME280;62776;50.518;6.732;2023-12-20T03:17:43;96602.75;;;4.48;100.00
74346;BME280;62776;50.518;6.732;2023-12-20T03:20:32;96599.28;;;4.46;100.00
74346;BME280;62776;50.518;6.732;2023-12-20T03:23:21;96608.66;;;4.42;100.00
74346;BME280;62776;50.518;6.732;2023-12-20T03:26:10;96603.53;;;4.42;100.00
74346;BME280;62776;50.518;6.732;2023-12-20T03:29:02;96599.28;;;4.46;100.00
74346;BME280;62776;50.518;6.732;2023-12-20T03:32:26;96593.09;;;4.32;100.00
74346;BME280;62776;50.518;6.732;2023-12-20T03:35:12;96601.97;;;4.52;100.00
74346;BME280;62776;50.518;6.732;2023-12-20T03:37:59;96606.28;;;4.54;100.00
74346;BME280;62776;50.518;6.732;2023-12-20T03:40:46;96594.28;;;4.55;100.00
74346;BME280;62776;50.518;6.732;2023-12-20T03:43:32;96592.53;;;4.54;100.00
74346;BME280;62776;50.518;6.732;2023-12-20T03:46:21;96578.78;;;4.52;100.00
74346;BME280;62776;50.518;6.732;2023-12-20T03:49:20;96582.16;;;4.48;100.00
74346;BME280;62776;50.518;6.732;2023-12-20T03:52:07;96587.44;;;4.57;100.00
74346;BME280;62776;50.518;6.732;2023-12-20T03:54:55;96602.00;;;4.55;100.00
74346;BME280;62776;50.518;6.732;2023-12-20T03:57:42;96597.78;;;4.60;100.00
74346;BME280;62776;50.518;6.732;2023-12-20T04:00:28;96599.56;;;4.64;100.00
74346;BME280;62776;50.518;6.732;2023-12-20T04:03:14;96603.00;;;4.67;100.00
74346;BME280;62776;50.518;6.732;2023-12-20T04:06:01;96595.34;;;4.69;100.00
74346;BME280;62776;50.518;6.732;2023-12-20T04:08:55;96597.06;;;4.71;100.00
74346;BME280;62776;50.518;6.732;2023-12-20T04:12:02;96599.47;;;4.58;100.00
74346;BME280;62776;50.518;6.732;2023-12-20T04:14:51;96606.50;;;4.71;100.00
74346;BME280;62776;50.518;6.732;2023-12-20T04:17:37;96601.34;;;4.71;100.00
74346;BME280;62776;50.518;6.732;2023-12-20T04:20:23;96601.44;;;4.77;100.00
74346;BME280;62776;50.518;6.732;2023-12-20T04:23:10;96598.00;;;4.78;100.00
74346;BME280;62776;50.518;6.732;2023-12-20T04:25:59;96599.78;;;4.82;100.00
74346;BME280;62776;50.518;6.732;2023-12-20T04:28:46;96591.16;;;4.78;100.00
74346;BME280;62776;50.518;6.732;2023-12-20T04:31:34;96598.00;;;4.78;100.00
74346;BME280;62776;50.518;6.732;2023-12-20T04:34:23;96599.75;;;4.78;100.00
74346;BME280;62776;50.518;6.732;2023-12-20T04:37:10;96589.47;;;4.82;100.00
74346;BME280;62776;50.518;6.732;2023-12-20T04:39:59;96589.53;;;4.85;100.00
74346;BME280;62776;50.518;6.732;2023-12-20T04:42:45;96590.41;;;4.86;100.00
74346;BME280;62776;50.518;6.732;2023-12-20T04:45:34;96594.63;;;4.84;100.00
74346;BME280;62776;50.518;6.732;2023-12-20T04:48:24;96598.09;;;4.84;100.00
74346;BME280;62776;50.518;6.732;2023-12-20T04:51:10;96590.34;;;4.84;100.00
74346;BME280;62776;50.518;6.732;2023-12-20T04:53:58;96602.34;;;4.82;100.00
74346;BME280;62776;50.518;6.732;2023-12-20T04:56:44;96604.88;;;4.79;100.00
74346;BME280;62776;50.518;6.732;2023-12-20T04:59:30;96606.47;;;4.66;100.00
74346;BME280;62776;50.518;6.732;2023-12-20T05:02:21;96601.97;;;4.52;100.00
74346;BME280;62776;50.518;6.732;2023-12-20T05:05:08;96614.00;;;4.54;100.00
74346;BME280;62776;50.518;6.732;2023-12-20T05:08:04;96598.50;;;4.50;100.00
74346;BME280;62776;50.518;6.732;2023-12-20T05:10:54;96602.84;;;4.54;100.00
74346;BME280;62776;50.518;6.732;2023-12-20T05:13:40;96600.22;;;4.49;100.00
74346;BME280;62776;50.518;6.732;2023-12-20T05:16:36;96601.78;;;4.40;100.00
74346;BME280;62776;50.518;6.732;2023-12-20T05:19:49;96604.44;;;4.46;100.00
74346;BME280;62776;50.518;6.732;2023-12-20T05:22:38;96609.66;;;4.50;100.00
74346;BME280;62776;50.518;6.732;2023-12-20T05:25:27;96611.44;;;4.54;100.00
74346;BME280;62776;50.518;6.732;2023-12-20T05:28:19;96614.03;;;4.57;100.00
74346;BME280;62776;50.518;6.732;2023-12-20T05:31:05;96609.75;;;4.58;100.00
74346;BME280;62776;50.518;6.732;2023-12-20T05:33:56;96613.22;;;4.60;100.00
74346;BME280;62776;50.518;6.732;2023-12-20T05:36:46;96608.03;;;4.57;100.00
74346;BME280;62776;50.518;6.732;2023-12-20T05:39:32;96597.72;;;4.57;100.00
74346;BME280;62776;50.518;6.732;2023-12-20T05:42:21;96599.28;;;4.46;100.00
74346;BME280;62776;50.518;6.732;2023-12-20T05:45:08;96614.69;;;4.41;100.00
74346;BME280;62776;50.518;6.732;2023-12-20T05:47:57;96609.50;;;4.40;100.00
74346;BME280;62776;50.518;6.732;2023-12-20T05:50:51;96601.88;;;4.46;100.00
74346;BME280;62776;50.518;6.732;2023-12-20T05:53:37;96601.03;;;4.47;100.00
74346;BME280;62776;50.518;6.732;2023-12-20T05:56:24;96601.03;;;4.47;100.00
74346;BME280;62776;50.518;6.732;2023-12-20T05:59:28;96596.81;;;4.52;100.00
74346;BME280;62776;50.518;6.732;2023-12-20T06:02:14;96603.63;;;4.48;100.00
74346;BME280;62776;50.518;6.732;2023-12-20T06:05:09;96604.34;;;4.40;100.00
74346;BME280;62776;50.518;6.732;2023-12-20T06:07:58;96594.19;;;4.47;100.00
74346;BME280;62776;50.518;6.732;2023-12-20T06:10:51;96607.00;;;4.44;100.00
74346;BME280;62776;50.518;6.732;2023-12-20T06:13:39;96614.00;;;4.53;100.00
74346;BME280;62776;50.518;6.732;2023-12-20T06:16:28;96610.56;;;4.54;100.00
74346;BME280;62776;50.518;6.732;2023-12-20T06:19:15;96618.28;;;4.52;100.00
74346;BME280;62776;50.518;6.732;2023-12-20T06:22:01;96614.00;;;4.54;100.00
74346;BME280;62776;50.518;6.732;2023-12-20T06:24:48;96614.03;;;4.56;100.00
74346;BME280;62776;50.518;6.732;2023-12-20T06:27:34;96616.66;;;4.62;100.00
74346;BME280;62776;50.518;6.732;2023-12-20T06:30:31;96621.00;;;4.63;100.00
74346;BME280;62776;50.518;6.732;2023-12-20T06:33:18;96634.69;;;4.62;100.00
74346;BME280;62776;50.518;6.732;2023-12-20T06:36:10;96632.16;;;4.65;100.00
74346;BME280;62776;50.518;6.732;2023-12-20T06:38:57;96628.72;;;4.64;100.00
74346;BME280;62776;50.518;6.732;2023-12-20T06:41:44;96639.06;;;4.66;100.00
74346;BME280;62776;50.518;6.732;2023-12-20T06:44:30;96643.38;;;4.70;100.00
74346;BME280;62776;50.518;6.732;2023-12-20T06:47:23;96619.72;;;4.34;100.00
74346;BME280;62776;50.518;6.732;2023-12-20T06:50:09;96620.91;;;4.57;100.00
74346;BME280;62776;50.518;6.732;2023-12-20T06:52:55;96623.56;;;4.61;100.00
74346;BME280;62776;50.518;6.732;2023-12-20T06:55:42;96618.47;;;4.66;100.00
74346;BME280;62776;50.518;6.732;2023-12-20T06:58:28;96626.19;;;4.67;100.00
74346;BME280;62776;50.518;6.732;2023-12-20T07:01:25;96624.47;;;4.68;100.00
74346;BME280;62776;50.518;6.732;2023-12-20T07:04:13;96617.63;;;4.68;100.00
74346;BME280;62776;50.518;6.732;2023-12-20T07:07:07;96622.78;;;4.68;100.00
74346;BME280;62776;50.518;6.732;2023-12-20T07:10:08;96630.41;;;4.61;100.00
74346;BME280;62776;50.518;6.732;2023-12-20T07:13:00;96650.22;;;4.66;100.00
74346;BME280;62776;50.518;6.732;2023-12-20T07:15:50;96644.25;;;4.69;100.00
74346;BME280;62776;50.518;6.732;2023-12-20T07:18:37;96639.09;;;4.70;100.00
74346;BME280;62776;50.518;6.732;2023-12-20T07:21:23;96632.19;;;4.68;100.00
74346;BME280;62776;50.518;6.732;2023-12-20T07:24:20;96636.47;;;4.67;100.00
74346;BME280;62776;50.518;6.732;2023-12-20T07:27:06;96634.03;;;4.75;100.00
74346;BME280;62776;50.518;6.732;2023-12-20T07:29:55;96623.75;;;4.75;100.00
74346;BME280;62776;50.518;6.732;2023-12-20T07:32:42;96635.75;;;4.74;100.00
74346;BME280;62776;50.518;6.732;2023-12-20T07:35:38;96640.88;;;4.74;100.00
74346;BME280;62776;50.518;6.732;2023-12-20T07:38:25;96634.88;;;4.74;100.00
74346;BME280;62776;50.518;6.732;2023-12-20T07:41:17;96637.44;;;4.74;100.00
74346;BME280;62776;50.518;6.732;2023-12-20T07:44:07;96646.00;;;4.73;100.00
74346;BME280;62776;50.518;6.732;2023-12-20T07:46:55;96654.59;;;4.72;100.00
74346;BME280;62776;50.518;6.732;2023-12-20T07:49:41;96655.47;;;4.75;100.00
74346;BME280;62776;50.518;6.732;2023-12-20T07:52:31;96659.78;;;4.75;100.00
74346;BME280;62776;50.518;6.732;2023-12-20T07:55:17;96658.91;;;4.74;100.00
74346;BME280;62776;50.518;6.732;2023-12-20T07:58:06;96656.28;;;4.71;100.00
74346;BME280;62776;50.518;6.732;2023-12-20T08:00:56;96641.72;;;4.72;100.00
74346;BME280;62776;50.518;6.732;2023-12-20T08:03:49;96657.94;;;4.68;100.00
74346;BME280;62776;50.518;6.732;2023-12-20T08:06:46;96652.00;;;4.72;100.00
74346;BME280;62776;50.518;6.732;2023-12-20T08:09:33;96648.63;;;4.76;100.00
74346;BME280;62776;50.518;6.732;2023-12-20T08:12:22;96646.03;;;4.76;100.00
74346;BME280;62776;50.518;6.732;2023-12-20T08:15:09;96651.19;;;4.76;100.00
74346;BME280;62776;50.518;6.732;2023-12-20T08:17:56;96649.56;;;4.83;100.00
74346;BME280;62776;50.518;6.732;2023-12-20T08:20:46;96654.69;;;4.81;100.00
74346;BME280;62776;50.518;6.732;2023-12-20T08:23:36;96654.66;;;4.78;100.00
74346;BME280;62776;50.518;6.732;2023-12-20T08:26:26;96666.75;;;4.84;100.00
74346;BME280;62776;50.518;6.732;2023-12-20T08:29:15;96659.97;;;4.90;100.00
74346;BME280;62776;50.518;6.732;2023-12-20T08:32:02;96659.97;;;4.89;100.00
74346;BME280;62776;50.518;6.732;2023-12-20T08:34:51;96656.53;;;4.88;100.00
74346;BME280;62776;50.518;6.732;2023-12-20T08:37:40;96662.50;;;4.87;100.00
74346;BME280;62776;50.518;6.732;2023-12-20T08:40:27;96661.75;;;4.94;100.00
74346;BME280;62776;50.518;6.732;2023-12-20T08:43:15;96666.03;;;4.95;100.00
74346;BME280;62776;50.518;6.732;2023-12-20T08:46:07;96652.25;;;4.92;100.00
74346;BME280;62776;50.518;6.732;2023-12-20T08:48:55;96658.34;;;4.98;100.00
74346;BME280;62776;50.518;6.732;2023-12-20T08:51:47;96653.22;;;4.98;100.00
74346;BME280;62776;50.518;6.732;2023-12-20T08:54:34;96646.34;;;5.00;100.00
74346;BME280;62776;50.518;6.732;2023-12-20T08:57:20;96637.75;;;4.97;100.00
74346;BME280;62776;50.518;6.732;2023-12-20T09:00:11;96635.16;;;4.97;100.00
74346;BME280;62776;50.518;6.732;2023-12-20T09:02:58;96623.00;;;4.87;100.00
74346;BME280;62776;50.518;6.732;2023-12-20T09:05:45;96634.13;;;4.83;100.00
74346;BME280;62776;50.518;6.732;2023-12-20T09:08:31;96641.09;;;4.91;100.00
74346;BME280;62776;50.518;6.732;2023-12-20T09:11:26;96651.47;;;4.97;100.00
74346;BME280;62776;50.518;6.732;2023-12-20T09:14:13;96647.31;;;5.07;100.00
74346;BME280;62776;50.518;6.732;2023-12-20T09:17:04;96648.19;;;5.07;100.00
74346;BME280;62776;50.518;6.732;2023-12-20T09:19:50;96647.47;;;5.19;100.00
74346;BME280;62776;50.518;6.732;2023-12-20T09:22:40;96642.31;;;5.22;100.00
74346;BME280;62776;50.518;6.732;2023-12-20T09:25:28;96646.63;;;5.23;100.00
74346;BME280;62776;50.518;6.732;2023-12-20T09:28:17;96645.81;;;5.25;100.00
74346;BME280;62776;50.518;6.732;2023-12-20T09:31:06;96640.66;;;5.25;100.00
74346;BME280;62776;50.518;6.732;2023-12-20T09:33:55;96646.72;;;5.30;100.00
74346;BME280;62776;50.518;6.732;2023-12-20T09:36:41;96638.03;;;5.22;100.00
74346;BME280;62776;50.518;6.732;2023-12-20T09:39:35;96655.25;;;5.23;100.00
74346;BME280;62776;50.518;6.732;2023-12-20T09:45:30;96643.22;;;5.25;100.00
74346;BME280;62776;50.518;6.732;2023-12-20T09:48:20;96639.78;;;5.23;100.00
74346;BME280;62776;50.518;6.732;2023-12-20T09:51:09;96641.47;;;5.21;100.00
74346;BME280;62776;50.518;6.732;2023-12-20T09:53:56;96637.16;;;5.20;100.00
74346;BME280;62776;50.518;6.732;2023-12-20T09:56:44;96623.50;;;5.26;100.00
74346;BME280;62776;50.518;6.732;2023-12-20T09:59:30;96613.22;;;5.30;100.00
74346;BME280;62776;50.518;6.732;2023-12-20T10:02:19;96624.41;;;5.29;100.00
74346;BME280;62776;50.518;6.732;2023-12-20T10:05:08;96627.94;;;5.41;100.00
74346;BME280;62776;50.518;6.732;2023-12-20T10:08:02;96631.50;;;5.52;100.00
74346;BME280;62776;50.518;6.732;2023-12-20T10:10:51;96628.03;;;5.50;100.00
74346;BME280;62776;50.518;6.732;2023-12-20T10:13:41;96622.03;;;5.51;100.00
74346;BME280;62776;50.518;6.732;2023-12-20T10:16:28;96622.97;;;5.59;100.00
74346;BME280;62776;50.518;6.732;2023-12-20T10:19:17;96626.38;;;5.55;100.00
74346;BME280;62776;50.518;6.732;2023-12-20T10:22:06;96627.28;;;5.61;100.00
74346;BME280;62776;50.518;6.732;2023-12-20T10:24:53;96631.59;;;5.61;100.00
74346;BME280;62776;50.518;6.732;2023-12-20T10:27:42;96626.44;;;5.61;100.00
74346;BME280;62776;50.518;6.732;2023-12-20T10:30:29;96623.03;;;5.65;100.00
74346;BME280;62776;50.518;6.732;2023-12-20T10:33:24;96616.88;;;5.52;100.00
74346;BME280;62776;50.518;6.732;2023-12-20T10:36:11;96620.44;;;5.60;100.00
74346;BME280;62776;50.518;6.732;2023-12-20T10:38:59;96622.16;;;5.63;100.00
74346;BME280;62776;50.518;6.732;2023-12-20T10:41:46;96611.00;;;5.64;100.00
74346;BME280;62776;50.518;6.732;2023-12-20T10:44:34;96604.16;;;5.66;100.00
74346;BME280;62776;50.518;6.732;2023-12-20T10:47:25;96605.78;;;5.61;100.00
74346;BME280;62776;50.518;6.732;2023-12-20T10:50:15;96600.66;;;5.64;100.00
74346;BME280;62776;50.518;6.732;2023-12-20T10:53:05;96597.19;;;5.59;100.00
74346;BME280;62776;50.518;6.732;2023-12-20T10:55:55;96598.63;;;5.29;100.00
74346;BME280;62776;50.518;6.732;2023-12-20T10:58:42;96596.28;;;5.55;100.00
74346;BME280;62776;50.518;6.732;2023-12-20T11:01:32;96593.66;;;5.48;100.00
74346;BME280;62776;50.518;6.732;2023-12-20T11:04:25;96595.47;;;5.55;100.00
74346;BME280;62776;50.518;6.732;2023-12-20T11:10:39;96587.59;;;5.41;100.00
74346;BME280;62776;50.518;6.732;2023-12-20T11:13:42;96583.38;;;5.52;100.00
74346;BME280;62776;50.518;6.732;2023-12-20T11:16:33;96595.47;;;5.61;100.00
74346;BME280;62776;50.518;6.732;2023-12-20T11:19:22;96594.72;;;5.68;100.00
74346;BME280;62776;50.518;6.732;2023-12-20T11:22:11;96588.69;;;5.66;100.00
74346;BME280;62776;50.518;6.732;2023-12-20T11:25:06;96584.34;;;5.63;100.00
74346;BME280;62776;50.518;6.732;2023-12-20T11:28:12;96582.63;;;5.64;100.00
74346;BME280;62776;50.518;6.732;2023-12-20T11:31:03;96585.28;;;5.73;100.00
74346;BME280;62776;50.518;6.732;2023-12-20T11:34:13;96585.16;;;5.61;100.00
74346;BME280;62776;50.518;6.732;2023-12-20T11:37:03;96599.03;;;5.72;100.00
74346;BME280;62776;50.518;6.732;2023-12-20T11:39:58;96598.09;;;5.62;100.00
74346;BME280;62776;50.518;6.732;2023-12-20T11:42:50;96592.16;;;5.71;100.00
74346;BME280;62776;50.518;6.732;2023-12-20T11:45:49;96594.72;;;5.68;100.00
74346;BME280;62776;50.518;6.732;2023-12-20T11:48:46;96587.00;;;5.71;100.00
74346;BME280;62776;50.518;6.732;2023-12-20T11:51:34;96577.53;;;5.71;100.00
74346;BME280;62776;50.518;6.732;2023-12-20T11:54:23;96574.94;;;5.70;100.00
74346;BME280;62776;50.518;6.732;2023-12-20T11:57:12;96570.63;;;5.66;100.00
74346;BME280;62776;50.518;6.732;2023-12-20T12:00:03;96570.56;;;5.61;100.00
74346;BME280;62776;50.518;6.732;2023-12-20T12:02:57;96571.44;;;5.62;100.00
74346;BME280;62776;50.518;6.732;2023-12-20T12:05:36;96564.66;;;5.73;100.00
74346;BME280;62776;50.518;6.732;2023-12-20T12:08:22;96555.16;;;5.67;100.00
74346;BME280;62776;50.518;6.732;2023-12-20T12:11:11;96569.75;;;5.67;100.00
74346;BME280;62776;50.518;6.732;2023-12-20T12:13:57;96562.03;;;5.65;100.00
74346;BME280;62776;50.518;6.732;2023-12-20T12:16:43;96557.69;;;5.60;100.00
74346;BME280;62776;50.518;6.732;2023-12-20T12:19:30;96565.44;;;5.63;100.00
74346;BME280;62776;50.518;6.732;2023-12-20T12:22:21;96556.00;;;5.65;100.00
74346;BME280;62776;50.518;6.732;2023-12-20T12:25:13;96559.41;;;5.64;100.00
74346;BME280;62776;50.518;6.732;2023-12-20T12:28:00;96549.88;;;5.55;100.00
74346;BME280;62776;50.518;6.732;2023-12-20T12:30:59;96552.41;;;5.48;100.00
74346;BME280;62776;50.518;6.732;2023-12-20T12:33:46;96543.91;;;5.55;100.00
74346;BME280;62776;50.518;6.732;2023-12-20T12:36:32;96542.16;;;5.55;100.00
74346;BME280;62776;50.518;6.732;2023-12-20T12:39:19;96524.94;;;5.53;100.00
74346;BME280;62776;50.518;6.732;2023-12-20T12:42:05;96524.09;;;5.49;100.00
74346;BME280;62776;50.518;6.732;2023-12-20T12:44:54;96519.75;;;5.50;100.00
74346;BME280;62776;50.518;6.732;2023-12-20T12:47:41;96524.09;;;5.54;100.00
74346;BME280;62776;50.518;6.732;2023-12-20T12:50:27;96524.09;;;5.55;100.00
74346;BME280;62776;50.518;6.732;2023-12-20T12:53:14;96527.56;;;5.56;100.00
74346;BME280;62776;50.518;6.732;2023-12-20T12:56:01;96516.38;;;5.55;100.00
74346;BME280;62776;50.518;6.732;2023-12-20T12:58:47;96515.53;;;5.55;100.00
74346;BME280;62776;50.518;6.732;2023-12-20T13:01:33;96517.25;;;5.54;100.00
74346;BME280;62776;50.518;6.732;2023-12-20T13:04:21;96500.06;;;5.58;100.00
74346;BME280;62776;50.518;6.732;2023-12-20T13:07:11;96497.50;;;5.58;100.00
74346;BME280;62776;50.518;6.732;2023-12-20T13:09:58;96511.31;;;5.69;100.00
74346;BME280;62776;50.518;6.732;2023-12-20T13:12:44;96502.75;;;5.68;100.00
74346;BME280;62776;50.518;6.732;2023-12-20T13:15:31;96499.31;;;5.69;100.00
74346;BME280;62776;50.518;6.732;2023-12-20T13:18:19;96496.69;;;5.65;100.00
74346;BME280;62776;50.518;6.732;2023-12-20T13:21:05;96493.31;;;5.72;100.00
74346;BME280;62776;50.518;6.732;2023-12-20T13:23:51;96500.16;;;5.70;100.00
74346;BME280;62776;50.518;6.732;2023-12-20T13:26:39;96507.88;;;5.67;100.00
74346;BME280;62776;50.518;6.732;2023-12-20T13:29:26;96503.59;;;5.67;100.00
74346;BME280;62776;50.518;6.732;2023-12-20T13:32:15;96502.72;;;5.67;100.00
74346;BME280;62776;50.518;6.732;2023-12-20T13:35:01;96499.28;;;5.65;100.00
74346;BME280;62776;50.518;6.732;2023-12-20T13:37:49;96501.81;;;5.62;100.00
74346;BME280;62776;50.518;6.732;2023-12-20T13:40:37;96493.22;;;5.61;100.00
74346;BME280;62776;50.518;6.732;2023-12-20T13:43:23;96484.63;;;5.61;100.00
74346;BME280;62776;50.518;6.732;2023-12-20T13:46:10;96478.63;;;5.60;100.00
74346;BME280;62776;50.518;6.732;2023-12-20T13:48:56;96475.16;;;5.57;100.00
74346;BME280;62776;50.518;6.732;2023-12-20T13:51:43;96463.94;;;5.53;100.00
74346;BME280;62776;50.518;6.732;2023-12-20T13:54:29;96475.09;;;5.49;100.00
74346;BME280;62776;50.518;6.732;2023-12-20T13:57:16;96466.53;;;5.52;100.00
74346;BME280;62776;50.518;6.732;2023-12-20T14:00:03;96463.13;;;5.59;100.00
74346;BME280;62776;50.518;6.732;2023-12-20T14:06:14;96451.09;;;5.55;100.00
74346;BME280;62776;50.518;6.732;2023-12-20T14:09:01;96444.25;;;5.61;100.00
74346;BME280;62776;50.518;6.732;2023-12-20T14:11:47;96446.88;;;5.69;100.00
74346;BME280;62776;50.518;6.732;2023-12-20T14:14:33;96441.75;;;5.75;100.00
74346;BME280;62776;50.518;6.732;2023-12-20T14:17:20;96434.84;;;5.68;100.00
74346;BME280;62776;50.518;6.732;2023-12-20T14:20:10;96431.47;;;5.76;100.00
74346;BME280;62776;50.518;6.732;2023-12-20T14:22:58;96430.59;;;5.76;100.00
74346;BME280;62776;50.518;6.732;2023-12-20T14:25:45;96425.47;;;5.83;100.00
74346;BME280;62776;50.518;6.732;2023-12-20T14:28:31;96413.44;;;5.84;100.00
74346;BME280;62776;50.518;6.732;2023-12-20T14:31:18;96411.66;;;5.77;100.00
74346;BME280;62776;50.518;6.732;2023-12-20T14:34:05;96417.66;;;5.70;100.00
74346;BME280;62776;50.518;6.732;2023-12-20T14:36:51;96417.63;;;5.67;100.00
74346;BME280;62776;50.518;6.732;2023-12-20T14:39:38;96427.09;;;5.66;100.00
74346;BME280;62776;50.518;6.732;2023-12-20T14:42:27;96431.41;;;5.66;100.00
74346;BME280;62776;50.518;6.732;2023-12-20T14:45:16;96427.09;;;5.66;100.00
74346;BME280;62776;50.518;6.732;2023-12-20T14:48:03;96415.97;;;5.73;100.00
74346;BME280;62776;50.518;6.732;2023-12-20T14:50:49;96416.84;;;5.74;100.00
74346;BME280;62776;50.518;6.732;2023-12-20T14:53:39;96412.50;;;5.71;100.00
74346;BME280;62776;50.518;6.732;2023-12-20T14:56:26;96418.53;;;5.72;100.00
74346;BME280;62776;50.518;6.732;2023-12-20T14:59:12;96418.50;;;5.69;100.00
74346;BME280;62776;50.518;6.732;2023-12-20T15:01:58;96415.94;;;5.66;100.00
74346;BME280;62776;50.518;6.732;2023-12-20T15:04:45;96419.34;;;5.65;100.00
74346;BME280;62776;50.518;6.732;2023-12-20T15:07:31;96411.63;;;5.65;100.00
74346;BME280;62776;50.518;6.732;2023-12-20T15:10:18;96421.94;;;5.65;100.00
74346;BME280;62776;50.518;6.732;2023-12-20T15:13:04;96414.19;;;5.66;100.00
74346;BME280;62776;50.518;6.732;2023-12-20T15:15:52;96416.78;;;5.68;100.00
74346;BME280;62776;50.518;6.732;2023-12-20T15:18:41;96421.09;;;5.70;100.00